ADDS METAR Data INFO
IDs: Format: Raw Decoded Include TAF

Data at: 1157 UTC 23 Jun 2018

KMAN 231135Z AUTO 28007KT 10SM SCT049 SCT055 17/05 A2995 RMK A01
KMAN 231115Z AUTO 29006KT 10SM SCT049 SCT055 17/05 A2995 RMK A01
KMAN 231055Z AUTO 29008KT 10SM SCT047 SCT055 17/05 A2994 RMK A01
KMAN 231035Z AUTO 31007KT 10SM BKN048 BKN055 18/05 A2994 RMK A01
KMAN 231015Z AUTO 30008KT 10SM BKN049 BKN055 18/05 A2994 RMK A01
KMAN 230955Z AUTO 29007KT 10SM FEW042 FEW047 18/05 A2994 RMK A01
KMAN 230935Z AUTO 27008KT 10SM FEW042 FEW048 FEW065 18/05 A2994 RMK A01
KMAN 230915Z AUTO 25007KT 10SM FEW041 SCT065 18/04 A2994 RMK A01
KMAN 230855Z AUTO 27006KT 10SM SCT065 18/04 A2994 RMK A01
KMAN 230835Z AUTO 27007KT 10SM SCT055 SCT065 19/05 A2993 RMK A01
KMAN 230815Z AUTO 25005KT 10SM FEW050 SCT060 19/06 A2993 RMK A01
KMAN 230755Z AUTO 25006KT 10SM FEW065 20/06 A2993 RMK A01
KMAN 230735Z AUTO 28005KT 10SM FEW055 SCT065 20/06 A2993 RMK A01
KMAN 230715Z AUTO 29007KT 10SM SCT060 21/07 A2992 RMK A01
KMAN 230655Z AUTO 33007KT 10SM SCT055 21/07 A2992 RMK A01
KMAN 230635Z AUTO 32008KT 10SM SCT055 22/08 A2992 RMK A01
KMAN 230615Z AUTO 31006KT 10SM CLR 22/08 A2991 RMK A01
KMAN 230555Z AUTO 32006KT 10SM CLR 23/08 A2991 RMK A01
KMAN 230535Z AUTO 33005KT 10SM CLR 23/09 A2991 RMK A01
KMAN 230515Z AUTO 33008KT 10SM SCT100 23/10 A2991 RMK A01
KMAN 230455Z AUTO 32005KT 10SM BKN090 BKN110 24/12 A2990 RMK A01
KMAN 230435Z AUTO 33007KT 10SM SCT090 SCT110 24/12 A2989 RMK A01
KMAN 230415Z AUTO 33008KT 10SM FEW047 24/11 A2988 RMK A01
KMAN 230355Z AUTO 33008KT 10SM CLR 25/11 A2987 RMK A01
KMAN 230335Z AUTO 34008G14KT 10SM CLR 25/11 A2986 RMK A01
KMAN 230315Z AUTO 35010KT 10SM CLR 26/11 A2985 RMK A01
KMAN 230255Z AUTO 34013KT 10SM CLR 27/11 A2985 RMK A01
KMAN 230235Z AUTO 31005G10KT 10SM CLR 30/09 A2984 RMK A01
KMAN 230215Z AUTO 00000KT 10SM CLR 30/09 A2983 RMK A01
KMAN 230155Z AUTO 09004KT 10SM CLR 30/09 A2983 RMK A01
KMAN 230135Z AUTO 08003KT 10SM CLR 31/09 A2984 RMK A01
KMAN 230115Z AUTO 07006KT 10SM CLR 31/09 A2984 RMK A01
KMAN 230055Z AUTO 00000KT 10SM CLR 31/08 A2985 RMK A01
KMAN 230035Z AUTO 36007KT 10SM CLR 31/08 A2985 RMK A01
KMAN 230015Z AUTO 04004G10KT 10SM CLR 31/08 A2986 RMK A01
KMAN 222355Z AUTO 03003KT 10SM CLR 31/08 A2987 RMK A01
KMAN 222335Z AUTO VRB05KT 10SM CLR 31/08 A2988 RMK A01
KMAN 222315Z AUTO 36007KT 10SM CLR 31/08 A2989 RMK A01
KMAN 222255Z AUTO 01006KT 10SM CLR 31/08 A2989 RMK A01
KMAN 222235Z AUTO VRB04KT 10SM CLR 31/08 A2990 RMK A01
KMAN 222215Z AUTO 00000KT 10SM CLR 30/08 A2991 RMK A01
KMAN 222155Z AUTO 09005KT 10SM CLR 30/09 A2992 RMK A01
KMAN 222135Z AUTO VRB05KT 10SM CLR 31/09 A2993 RMK A01
KMAN 222115Z AUTO 07005KT 10SM CLR 30/08 A2994 RMK A01
KMAN 222055Z AUTO 05008KT 10SM CLR 30/08 A2996 RMK A01
KMAN 222035Z AUTO 02007KT 10SM CLR 30/07 A2997 RMK A01
KMAN 222015Z AUTO 04008KT 10SM CLR 29/08 A2998 RMK A01
KMAN 221955Z AUTO 00000KT 10SM CLR 29/09 A2999 RMK A01
KMAN 221935Z AUTO VRB04KT 10SM CLR 28/10 A3000 RMK A01
KMAN 221915Z AUTO VRB06KT 10SM CLR 28/10 A3000 RMK A01
KMAN 221855Z AUTO 00000KT 10SM CLR 27/10 A3001 RMK A01
KMAN 221835Z AUTO 00000KT 10SM CLR 27/10 A3002 RMK A01
KMAN 221815Z AUTO 00000KT 10SM CLR 26/11 A3003 RMK A01
KMAN 221755Z AUTO 35004KT 10SM CLR 26/12 A3004 RMK A01
KMAN 221735Z AUTO 01005KT 10SM CLR 25/12 A3004 RMK A01
KMAN 221715Z AUTO 36004KT 10SM CLR 25/13 A3005 RMK A01
KMAN 221655Z AUTO VRB03KT 10SM CLR 24/13 A3005 RMK A01
KMAN 221635Z AUTO 26003KT 10SM CLR 24/14 A3006 RMK A01
KMAN 221615Z AUTO 00000KT 10SM CLR 23/14 A3007 RMK A01
KMAN 221555Z AUTO 00000KT 10SM CLR 22/14 A3007 RMK A01
KMAN 221535Z AUTO 00000KT 10SM CLR 22/14 A3007 RMK A01
KMAN 221515Z AUTO 00000KT 10SM CLR 21/14 A3007 RMK A01
KMAN 221455Z AUTO 00000KT 10SM CLR 20/14 A3007 RMK A01
KMAN 221435Z AUTO 00000KT 10SM CLR 19/14 A3007 RMK A01
KMAN 221415Z AUTO 00000KT 9SM CLR 18/15 A3007 RMK A01
KMAN 221355Z AUTO 00000KT 9SM CLR 17/13 A3007 RMK A01
KMAN 221335Z AUTO 00000KT 10SM CLR 16/13 A3007 RMK A01
KMAN 221315Z AUTO 00000KT 9SM CLR 15/14 A3006 RMK A01
KMAN 221255Z AUTO 00000KT 9SM CLR 14/13 A3006 RMK A01
KMAN 221235Z AUTO 00000KT 10SM CLR 13/13 A3006 RMK A01
KMAN 221215Z AUTO 00000KT 7SM CLR 13/13 A3005 RMK A01
KMAN 221155Z AUTO 00000KT 7SM FEW060 13/13 A3005 RMK A01
KMAN 221135Z AUTO 00000KT 7SM SCT065 SCT100 13/13 A3004 RMK A01
KMAN 221115Z AUTO 00000KT 7SM SCT070 SCT100 14/13 A3005 RMK A01
KMAN 221055Z AUTO 00000KT 8SM SCT070 14/13 A3005 RMK A01
KMAN 221035Z AUTO 00000KT 10SM FEW070 14/13 A3004 RMK A01
KMAN 221015Z AUTO 00000KT 6SM BR CLR 14/14 A3004 RMK A01
KMAN 220955Z AUTO 00000KT 8SM CLR 14/14 A3004 RMK A01
KMAN 220935Z AUTO 00000KT 10SM FEW050 15/14 A3004 RMK A01
KMAN 220855Z AUTO 00000KT 10SM FEW050 15/14 A3004 RMK A01
KMAN 220835Z AUTO 00000KT 10SM FEW050 16/14 A3003 RMK A01
KMAN 220755Z AUTO 00000KT 10SM FEW050 SCT055 17/14 A3003 RMK A01
KMAN 220735Z AUTO 00000KT 10SM FEW050 16/14 A3003 RMK A01
KMAN 220715Z AUTO 00000KT 10SM FEW050 16/14 A3003 RMK A01
KMAN 220655Z AUTO 00000KT 10SM FEW048 FEW055 17/14 A3003 RMK A01
KMAN 220555Z AUTO 00000KT 10SM FEW049 19/13 A3003 RMK A01
KMAN 220535Z AUTO 00000KT 10SM FEW049 19/13 A3003 RMK A01
KMAN 220515Z AUTO 00000KT 10SM CLR 19/13 A3003 RMK A01
KMAN 220455Z AUTO 00000KT 10SM FEW050 21/12 A3003 RMK A01
KMAN 220435Z AUTO 00000KT 10SM 22/12 A3003 RMK A01
KMAN 220415Z AUTO 00000KT 10SM CLR 22/12 A3003 RMK A01
KMAN 220355Z AUTO 00000KT 10SM CLR 23/11 A3001 RMK A01
KMAN 220335Z AUTO 00000KT 10SM CLR 25/10 A3001 RMK A01
KMAN 220315Z AUTO 35003KT 10SM CLR 25/10 A3000 RMK A01
KMAN 220255Z AUTO 36005KT 10SM CLR 26/10 A3000 RMK A01
KMAN 220235Z AUTO 35006KT 10SM CLR 26/09 A3000 RMK A01
KMAN 220215Z AUTO 35007G13KT 10SM CLR 26/09 A3000 RMK A01
KMAN 220155Z AUTO 33010G15KT 10SM CLR 27/08 A3000 RMK A01
KMAN 220135Z AUTO 33009G15KT 10SM CLR 27/09 A3001 RMK A01
KMAN 220115Z AUTO 34013KT 10SM CLR 27/09 A3001 RMK A01
KMAN 220055Z AUTO 33011KT 10SM CLR 27/09 A3000 RMK A01
KMAN 220035Z AUTO 31009G16KT 10SM CLR 27/10 A3000 RMK A01
KMAN 220015Z AUTO 31009KT 10SM CLR 27/10 A3000 RMK A01